sensor_id;sensor_type;location;lat;lon;timestamp;P1;durP1;ratioP1;P2;durP2;ratioP2
20283;SDS011;10301;50.832;4.080;2023-04-25T00:02:03;18.80;;;4.53;;
20283;SDS011;10301;50.832;4.080;2023-04-25T00:04:30;15.10;;;4.43;;
20283;SDS011;10301;50.832;4.080;2023-04-25T00:06:58;14.80;;;4.37;;
20283;SDS011;10301;50.832;4.080;2023-04-25T00:09:26;12.00;;;4.07;;
20283;SDS011;10301;50.832;4.080;2023-04-25T00:11:52;15.60;;;4.80;;
20283;SDS011;10301;50.832;4.080;2023-04-25T00:14:18;13.97;;;4.53;;
20283;SDS011;10301;50.832;4.080;2023-04-25T00:16:44;24.27;;;5.10;;
20283;SDS011;10301;50.832;4.080;2023-04-25T00:19:09;20.23;;;4.90;;
20283;SDS011;10301;50.832;4.080;2023-04-25T00:21:35;13.97;;;4.87;;
20283;SDS011;10301;50.832;4.080;2023-04-25T00:24:02;14.30;;;4.43;;
20283;SDS011;10301;50.832;4.080;2023-04-25T00:26:28;15.93;;;5.13;;
20283;SDS011;10301;50.832;4.080;2023-04-25T00:28:54;22.60;;;4.97;;
20283;SDS011;10301;50.832;4.080;2023-04-25T00:31:20;16.20;;;4.50;;
20283;SDS011;10301;50.832;4.080;2023-04-25T00:33:46;20.83;;;5.17;;
20283;SDS011;10301;50.832;4.080;2023-04-25T00:36:13;16.63;;;4.87;;
20283;SDS011;10301;50.832;4.080;2023-04-25T00:38:39;12.30;;;4.70;;
20283;SDS011;10301;50.832;4.080;2023-04-25T00:41:05;16.10;;;4.53;;
20283;SDS011;10301;50.832;4.080;2023-04-25T00:43:32;17.37;;;4.73;;
20283;SDS011;10301;50.832;4.080;2023-04-25T00:45:59;17.93;;;4.93;;
20283;SDS011;10301;50.832;4.080;2023-04-25T00:48:26;17.80;;;4.60;;
20283;SDS011;10301;50.832;4.080;2023-04-25T00:50:52;15.63;;;4.80;;
20283;SDS011;10301;50.832;4.080;2023-04-25T00:53:23;18.27;;;4.97;;
20283;SDS011;10301;50.832;4.080;2023-04-25T00:55:50;17.97;;;5.23;;
20283;SDS011;10301;50.832;4.080;2023-04-25T00:58:17;16.33;;;4.73;;
20283;SDS011;10301;50.832;4.080;2023-04-25T01:00:46;18.13;;;5.07;;
20283;SDS011;10301;50.832;4.080;2023-04-25T01:03:14;12.27;;;4.40;;
20283;SDS011;10301;50.832;4.080;2023-04-25T01:05:42;15.83;;;4.63;;
20283;SDS011;10301;50.832;4.080;2023-04-25T01:08:08;23.77;;;4.90;;
20283;SDS011;10301;50.832;4.080;2023-04-25T01:10:35;18.83;;;4.63;;
20283;SDS011;10301;50.832;4.080;2023-04-25T01:13:01;18.53;;;4.90;;
20283;SDS011;10301;50.832;4.080;2023-04-25T01:15:26;13.70;;;4.87;;
20283;SDS011;10301;50.832;4.080;2023-04-25T01:17:52;15.63;;;5.17;;
20283;SDS011;10301;50.832;4.080;2023-04-25T01:20:19;16.30;;;4.77;;
20283;SDS011;10301;50.832;4.080;2023-04-25T01:22:47;17.07;;;5.07;;
20283;SDS011;10301;50.832;4.080;2023-04-25T01:25:14;18.57;;;4.53;;
20283;SDS011;10301;50.832;4.080;2023-04-25T01:27:40;19.77;;;5.13;;
20283;SDS011;10301;50.832;4.080;2023-04-25T01:30:06;19.23;;;4.90;;
20283;SDS011;10301;50.832;4.080;2023-04-25T01:32:33;14.77;;;4.90;;
20283;SDS011;10301;50.832;4.080;2023-04-25T01:35:05;16.20;;;4.67;;
20283;SDS011;10301;50.832;4.080;2023-04-25T01:37:43;20.63;;;4.90;;
20283;SDS011;10301;50.832;4.080;2023-04-25T01:40:10;19.60;;;5.13;;
20283;SDS011;10301;50.832;4.080;2023-04-25T01:42:37;21.37;;;5.30;;
20283;SDS011;10301;50.832;4.080;2023-04-25T01:45:06;17.07;;;5.03;;
20283;SDS011;10301;50.832;4.080;2023-04-25T01:47:32;20.97;;;5.23;;
20283;SDS011;10301;50.832;4.080;2023-04-25T01:50:00;15.73;;;5.30;;
20283;SDS011;10301;50.832;4.080;2023-04-25T01:52:27;16.20;;;5.37;;
20283;SDS011;10301;50.832;4.080;2023-04-25T01:54:52;12.97;;;4.97;;
20283;SDS011;10301;50.832;4.080;2023-04-25T01:57:19;16.57;;;4.70;;
20283;SDS011;10301;50.832;4.080;2023-04-25T01:59:45;21.27;;;5.47;;
20283;SDS011;10301;50.832;4.080;2023-04-25T02:02:11;17.90;;;5.27;;
20283;SDS011;10301;50.832;4.080;2023-04-25T02:04:37;19.87;;;5.63;;
20283;SDS011;10301;50.832;4.080;2023-04-25T02:07:03;20.20;;;5.90;;
20283;SDS011;10301;50.832;4.080;2023-04-25T02:09:29;19.63;;;5.97;;
20283;SDS011;10301;50.832;4.080;2023-04-25T02:11:54;18.67;;;6.03;;
20283;SDS011;10301;50.832;4.080;2023-04-25T02:14:20;28.43;;;5.90;;
20283;SDS011;10301;50.832;4.080;2023-04-25T02:16:46;19.30;;;5.27;;
20283;SDS011;10301;50.832;4.080;2023-04-25T02:19:12;16.70;;;4.90;;
20283;SDS011;10301;50.832;4.080;2023-04-25T02:21:38;19.30;;;5.97;;
20283;SDS011;10301;50.832;4.080;2023-04-25T02:24:03;22.63;;;6.00;;
20283;SDS011;10301;50.832;4.080;2023-04-25T02:26:29;20.77;;;6.87;;
20283;SDS011;10301;50.832;4.080;2023-04-25T02:28:56;19.80;;;5.97;;
20283;SDS011;10301;50.832;4.080;2023-04-25T02:31:22;18.37;;;5.73;;
20283;SDS011;10301;50.832;4.080;2023-04-25T02:33:48;21.60;;;5.97;;
20283;SDS011;10301;50.832;4.080;2023-04-25T02:36:13;16.73;;;6.43;;
20283;SDS011;10301;50.832;4.080;2023-04-25T02:38:40;19.77;;;5.30;;
20283;SDS011;10301;50.832;4.080;2023-04-25T02:41:05;17.47;;;5.53;;
20283;SDS011;10301;50.832;4.080;2023-04-25T02:43:31;17.23;;;5.17;;
20283;SDS011;10301;50.832;4.080;2023-04-25T02:45:57;17.90;;;4.77;;
20283;SDS011;10301;50.832;4.080;2023-04-25T02:48:23;16.73;;;5.00;;
20283;SDS011;10301;50.832;4.080;2023-04-25T02:50:48;19.77;;;4.97;;
20283;SDS011;10301;50.832;4.080;2023-04-25T02:53:14;20.10;;;5.30;;
20283;SDS011;10301;50.832;4.080;2023-04-25T02:55:40;18.73;;;5.10;;
20283;SDS011;10301;50.832;4.080;2023-04-25T02:58:05;17.83;;;5.10;;
20283;SDS011;10301;50.832;4.080;2023-04-25T03:00:31;23.20;;;5.57;;
20283;SDS011;10301;50.832;4.080;2023-04-25T03:02:57;18.90;;;4.93;;
20283;SDS011;10301;50.832;4.080;2023-04-25T03:05:23;19.47;;;4.73;;
20283;SDS011;10301;50.832;4.080;2023-04-25T03:07:48;16.40;;;5.00;;
20283;SDS011;10301;50.832;4.080;2023-04-25T03:10:14;23.43;;;5.07;;
20283;SDS011;10301;50.832;4.080;2023-04-25T03:12:40;22.23;;;4.27;;
20283;SDS011;10301;50.832;4.080;2023-04-25T03:15:05;21.33;;;4.73;;
20283;SDS011;10301;50.832;4.080;2023-04-25T03:17:32;20.77;;;5.10;;
20283;SDS011;10301;50.832;4.080;2023-04-25T03:19:57;18.97;;;4.83;;
20283;SDS011;10301;50.832;4.080;2023-04-25T03:22:23;18.13;;;4.93;;
20283;SDS011;10301;50.832;4.080;2023-04-25T03:24:49;19.97;;;4.83;;
20283;SDS011;10301;50.832;4.080;2023-04-25T03:27:16;21.77;;;4.50;;
20283;SDS011;10301;50.832;4.080;2023-04-25T03:29:42;17.53;;;4.87;;
20283;SDS011;10301;50.832;4.080;2023-04-25T03:32:07;14.47;;;4.70;;
20283;SDS011;10301;50.832;4.080;2023-04-25T03:34:33;24.47;;;5.43;;
20283;SDS011;10301;50.832;4.080;2023-04-25T03:36:59;20.70;;;4.50;;
20283;SDS011;10301;50.832;4.080;2023-04-25T03:39:25;16.27;;;4.20;;
20283;SDS011;10301;50.832;4.080;2023-04-25T03:41:50;17.83;;;4.50;;
20283;SDS011;10301;50.832;4.080;2023-04-25T03:44:16;20.60;;;5.23;;
20283;SDS011;10301;50.832;4.080;2023-04-25T03:46:42;15.53;;;4.67;;
20283;SDS011;10301;50.832;4.080;2023-04-25T03:49:07;18.73;;;4.57;;
20283;SDS011;10301;50.832;4.080;2023-04-25T03:51:33;15.53;;;4.40;;
20283;SDS011;10301;50.832;4.080;2023-04-25T03:53:59;21.40;;;5.10;;
20283;SDS011;10301;50.832;4.080;2023-04-25T03:56:25;22.60;;;5.40;;
20283;SDS011;10301;50.832;4.080;2023-04-25T03:58:50;23.23;;;4.80;;
20283;SDS011;10301;50.832;4.080;2023-04-25T04:01:16;15.93;;;4.63;;
20283;SDS011;10301;50.832;4.080;2023-04-25T04:03:42;16.80;;;4.80;;
20283;SDS011;10301;50.832;4.080;2023-04-25T04:06:07;26.93;;;5.20;;
20283;SDS011;10301;50.832;4.080;2023-04-25T04:08:34;19.90;;;5.27;;
20283;SDS011;10301;50.832;4.080;2023-04-25T04:11:00;20.43;;;5.10;;
20283;SDS011;10301;50.832;4.080;2023-04-25T04:13:26;19.43;;;5.03;;
20283;SDS011;10301;50.832;4.080;2023-04-25T04:15:52;17.87;;;4.67;;
20283;SDS011;10301;50.832;4.080;2023-04-25T04:18:18;21.30;;;5.00;;
20283;SDS011;10301;50.832;4.080;2023-04-25T04:20:44;16.43;;;5.43;;
20283;SDS011;10301;50.832;4.080;2023-04-25T04:23:09;20.77;;;5.30;;
20283;SDS011;10301;50.832;4.080;2023-04-25T04:25:35;17.40;;;5.03;;
20283;SDS011;10301;50.832;4.080;2023-04-25T04:28:02;19.10;;;4.87;;
20283;SDS011;10301;50.832;4.080;2023-04-25T04:30:27;23.47;;;5.70;;
20283;SDS011;10301;50.832;4.080;2023-04-25T04:32:56;17.10;;;4.93;;
20283;SDS011;10301;50.832;4.080;2023-04-25T04:35:23;18.03;;;5.00;;
20283;SDS011;10301;50.832;4.080;2023-04-25T04:37:49;22.80;;;5.87;;
20283;SDS011;10301;50.832;4.080;2023-04-25T04:40:15;19.43;;;5.83;;
20283;SDS011;10301;50.832;4.080;2023-04-25T04:42:42;19.30;;;5.13;;
20283;SDS011;10301;50.832;4.080;2023-04-25T04:45:08;20.37;;;5.50;;
20283;SDS011;10301;50.832;4.080;2023-04-25T04:47:35;13.10;;;4.53;;
20283;SDS011;10301;50.832;4.080;2023-04-25T04:50:02;15.00;;;4.70;;
20283;SDS011;10301;50.832;4.080;2023-04-25T04:52:29;18.33;;;5.07;;
20283;SDS011;10301;50.832;4.080;2023-04-25T04:54:55;16.43;;;4.70;;
20283;SDS011;10301;50.832;4.080;2023-04-25T04:57:20;15.53;;;4.33;;
20283;SDS011;10301;50.832;4.080;2023-04-25T04:59:46;15.37;;;4.23;;
20283;SDS011;10301;50.832;4.080;2023-04-25T05:02:12;19.63;;;4.50;;
20283;SDS011;10301;50.832;4.080;2023-04-25T05:04:37;17.43;;;4.07;;
20283;SDS011;10301;50.832;4.080;2023-04-25T05:07:03;17.23;;;4.30;;
20283;SDS011;10301;50.832;4.080;2023-04-25T05:09:29;10.67;;;3.70;;
20283;SDS011;10301;50.832;4.080;2023-04-25T05:11:55;12.40;;;4.00;;
20283;SDS011;10301;50.832;4.080;2023-04-25T05:14:20;13.90;;;3.97;;
20283;SDS011;10301;50.832;4.080;2023-04-25T05:16:47;14.27;;;3.53;;
20283;SDS011;10301;50.832;4.080;2023-04-25T05:19:13;17.97;;;4.10;;
20283;SDS011;10301;50.832;4.080;2023-04-25T05:21:39;16.17;;;4.03;;
20283;SDS011;10301;50.832;4.080;2023-04-25T05:24:05;15.30;;;4.17;;
20283;SDS011;10301;50.832;4.080;2023-04-25T05:26:31;13.10;;;3.77;;
20283;SDS011;10301;50.832;4.080;2023-04-25T05:28:57;14.10;;;3.77;;
20283;SDS011;10301;50.832;4.080;2023-04-25T05:31:23;13.83;;;4.67;;
20283;SDS011;10301;50.832;4.080;2023-04-25T05:33:48;13.37;;;4.13;;
20283;SDS011;10301;50.832;4.080;2023-04-25T05:36:14;17.73;;;4.53;;
20283;SDS011;10301;50.832;4.080;2023-04-25T05:38:40;9.80;;;3.80;;
20283;SDS011;10301;50.832;4.080;2023-04-25T05:41:05;16.40;;;3.80;;
20283;SDS011;10301;50.832;4.080;2023-04-25T05:43:32;13.77;;;3.53;;
20283;SDS011;10301;50.832;4.080;2023-04-25T05:45:58;11.33;;;4.13;;
20283;SDS011;10301;50.832;4.080;2023-04-25T05:48:24;18.43;;;3.80;;
20283;SDS011;10301;50.832;4.080;2023-04-25T05:50:49;15.23;;;4.20;;
20283;SDS011;10301;50.832;4.080;2023-04-25T05:53:16;18.87;;;4.10;;
20283;SDS011;10301;50.832;4.080;2023-04-25T05:55:42;14.50;;;4.17;;
20283;SDS011;10301;50.832;4.080;2023-04-25T05:58:08;20.37;;;4.13;;
20283;SDS011;10301;50.832;4.080;2023-04-25T06:00:33;13.37;;;4.83;;
20283;SDS011;10301;50.832;4.080;2023-04-25T06:02:59;16.07;;;4.40;;
20283;SDS011;10301;50.832;4.080;2023-04-25T06:05:26;13.80;;;4.20;;
20283;SDS011;10301;50.832;4.080;2023-04-25T06:07:51;19.27;;;4.40;;
20283;SDS011;10301;50.832;4.080;2023-04-25T06:10:17;19.80;;;4.50;;
20283;SDS011;10301;50.832;4.080;2023-04-25T06:12:43;11.17;;;3.67;;
20283;SDS011;10301;50.832;4.080;2023-04-25T06:15:09;13.10;;;3.87;;
20283;SDS011;10301;50.832;4.080;2023-04-25T06:17:35;14.20;;;3.87;;
20283;SDS011;10301;50.832;4.080;2023-04-25T06:20:01;18.47;;;4.20;;
20283;SDS011;10301;50.832;4.080;2023-04-25T06:22:27;11.93;;;3.83;;
20283;SDS011;10301;50.832;4.080;2023-04-25T06:24:52;17.80;;;3.87;;
20283;SDS011;10301;50.832;4.080;2023-04-25T06:27:18;16.10;;;4.53;;
20283;SDS011;10301;50.832;4.080;2023-04-25T06:29:44;11.50;;;3.13;;
20283;SDS011;10301;50.832;4.080;2023-04-25T06:32:09;16.27;;;4.07;;
20283;SDS011;10301;50.832;4.080;2023-04-25T06:34:35;13.10;;;4.17;;
20283;SDS011;10301;50.832;4.080;2023-04-25T06:37:00;13.20;;;3.93;;
20283;SDS011;10301;50.832;4.080;2023-04-25T06:39:26;15.97;;;4.43;;
20283;SDS011;10301;50.832;4.080;2023-04-25T06:41:52;15.20;;;3.90;;
20283;SDS011;10301;50.832;4.080;2023-04-25T06:44:18;11.40;;;3.97;;
20283;SDS011;10301;50.832;4.080;2023-04-25T06:46:43;16.00;;;4.40;;
20283;SDS011;10301;50.832;4.080;2023-04-25T06:49:09;16.67;;;3.90;;
20283;SDS011;10301;50.832;4.080;2023-04-25T06:51:35;15.60;;;4.40;;
20283;SDS011;10301;50.832;4.080;2023-04-25T06:54:00;16.10;;;3.57;;
20283;SDS011;10301;50.832;4.080;2023-04-25T06:56:26;13.13;;;3.17;;
20283;SDS011;10301;50.832;4.080;2023-04-25T06:58:54;15.53;;;3.60;;
20283;SDS011;10301;50.832;4.080;2023-04-25T07:01:20;12.30;;;3.53;;
20283;SDS011;10301;50.832;4.080;2023-04-25T07:03:45;15.13;;;3.43;;
20283;SDS011;10301;50.832;4.080;2023-04-25T07:06:11;11.77;;;3.70;;
20283;SDS011;10301;50.832;4.080;2023-04-25T07:08:37;12.57;;;3.30;;
20283;SDS011;10301;50.832;4.080;2023-04-25T07:11:02;17.87;;;3.33;;
20283;SDS011;10301;50.832;4.080;2023-04-25T07:13:28;16.43;;;3.40;;
20283;SDS011;10301;50.832;4.080;2023-04-25T07:15:54;17.33;;;3.80;;
20283;SDS011;10301;50.832;4.080;2023-04-25T07:18:21;14.93;;;3.70;;
20283;SDS011;10301;50.832;4.080;2023-04-25T07:20:46;13.33;;;3.60;;
20283;SDS011;10301;50.832;4.080;2023-04-25T07:23:12;16.13;;;3.60;;
20283;SDS011;10301;50.832;4.080;2023-04-25T07:25:37;10.20;;;3.10;;
20283;SDS011;10301;50.832;4.080;2023-04-25T07:28:03;13.67;;;3.80;;
20283;SDS011;10301;50.832;4.080;2023-04-25T07:30:29;11.50;;;3.13;;
20283;SDS011;10301;50.832;4.080;2023-04-25T07:32:55;11.73;;;2.93;;
20283;SDS011;10301;50.832;4.080;2023-04-25T07:35:21;19.83;;;3.50;;
20283;SDS011;10301;50.832;4.080;2023-04-25T07:37:47;10.07;;;2.80;;
20283;SDS011;10301;50.832;4.080;2023-04-25T07:40:13;17.77;;;3.27;;
20283;SDS011;10301;50.832;4.080;2023-04-25T07:42:40;13.63;;;3.70;;
20283;SDS011;10301;50.832;4.080;2023-04-25T07:45:06;11.50;;;3.13;;
20283;SDS011;10301;50.832;4.080;2023-04-25T07:47:32;10.10;;;2.83;;
20283;SDS011;10301;50.832;4.080;2023-04-25T07:49:58;15.00;;;3.77;;
20283;SDS011;10301;50.832;4.080;2023-04-25T07:52:23;10.13;;;3.43;;
20283;SDS011;10301;50.832;4.080;2023-04-25T07:54:49;15.37;;;4.60;;
20283;SDS011;10301;50.832;4.080;2023-04-25T07:57:16;13.70;;;3.93;;
20283;SDS011;10301;50.832;4.080;2023-04-25T07:59:42;9.30;;;3.10;;
20283;SDS011;10301;50.832;4.080;2023-04-25T08:02:07;11.20;;;2.97;;
20283;SDS011;10301;50.832;4.080;2023-04-25T08:04:33;15.00;;;3.03;;
20283;SDS011;10301;50.832;4.080;2023-04-25T08:06:59;13.73;;;3.10;;
20283;SDS011;10301;50.832;4.080;2023-04-25T08:09:25;12.50;;;3.03;;
20283;SDS011;10301;50.832;4.080;2023-04-25T08:11:51;12.23;;;2.87;;
20283;SDS011;10301;50.832;4.080;2023-04-25T08:14:17;11.03;;;2.87;;
20283;SDS011;10301;50.832;4.080;2023-04-25T08:16:42;10.30;;;2.60;;
20283;SDS011;10301;50.832;4.080;2023-04-25T08:19:08;11.07;;;2.73;;
20283;SDS011;10301;50.832;4.080;2023-04-25T08:21:35;10.70;;;2.60;;
20283;SDS011;10301;50.832;4.080;2023-04-25T08:24:00;12.73;;;2.63;;
20283;SDS011;10301;50.832;4.080;2023-04-25T08:26:26;9.27;;;2.70;;
20283;SDS011;10301;50.832;4.080;2023-04-25T08:28:53;11.57;;;2.10;;
20283;SDS011;10301;50.832;4.080;2023-04-25T08:31:19;8.87;;;2.07;;
20283;SDS011;10301;50.832;4.080;2023-04-25T08:33:45;11.20;;;2.23;;
20283;SDS011;10301;50.832;4.080;2023-04-25T08:36:11;10.43;;;2.10;;
20283;SDS011;10301;50.832;4.080;2023-04-25T08:38:36;8.07;;;2.03;;
20283;SDS011;10301;50.832;4.080;2023-04-25T08:41:02;9.73;;;1.97;;
20283;SDS011;10301;50.832;4.080;2023-04-25T08:43:28;10.23;;;2.13;;
20283;SDS011;10301;50.832;4.080;2023-04-25T08:45:58;10.07;;;2.30;;
20283;SDS011;10301;50.832;4.080;2023-04-25T08:48:26;8.77;;;1.90;;
20283;SDS011;10301;50.832;4.080;2023-04-25T08:50:53;7.23;;;1.67;;
20283;SDS011;10301;50.832;4.080;2023-04-25T08:53:31;8.57;;;2.27;;
20283;SDS011;10301;50.832;4.080;2023-04-25T08:55:58;11.07;;;1.90;;
20283;SDS011;10301;50.832;4.080;2023-04-25T08:58:26;6.40;;;1.80;;
20283;SDS011;10301;50.832;4.080;2023-04-25T09:00:53;8.27;;;2.27;;
20283;SDS011;10301;50.832;4.080;2023-04-25T09:03:18;6.73;;;1.70;;
20283;SDS011;10301;50.832;4.080;2023-04-25T09:05:44;9.33;;;2.10;;
20283;SDS011;10301;50.832;4.080;2023-04-25T09:08:10;9.50;;;2.23;;
20283;SDS011;10301;50.832;4.080;2023-04-25T09:10:36;10.47;;;2.30;;
20283;SDS011;10301;50.832;4.080;2023-04-25T09:15:50;8.23;;;2.10;;
20283;SDS011;10301;50.832;4.080;2023-04-25T09:18:27;8.60;;;2.40;;
20283;SDS011;10301;50.832;4.080;2023-04-25T09:20:58;9.67;;;1.77;;
20283;SDS011;10301;50.832;4.080;2023-04-25T09:23:30;8.37;;;1.90;;
20283;SDS011;10301;50.832;4.080;2023-04-25T09:26:03;6.53;;;1.83;;
20283;SDS011;10301;50.832;4.080;2023-04-25T09:28:31;7.20;;;1.63;;
20283;SDS011;10301;50.832;4.080;2023-04-25T09:30:57;12.70;;;2.10;;
20283;SDS011;10301;50.832;4.080;2023-04-25T09:33:30;5.80;;;1.60;;
20283;SDS011;10301;50.832;4.080;2023-04-25T09:36:04;7.73;;;2.03;;
20283;SDS011;10301;50.832;4.080;2023-04-25T09:38:33;10.20;;;2.47;;
20283;SDS011;10301;50.832;4.080;2023-04-25T09:41:09;6.77;;;1.90;;
20283;SDS011;10301;50.832;4.080;2023-04-25T09:43:35;5.97;;;2.10;;
20283;SDS011;10301;50.832;4.080;2023-04-25T09:46:01;7.90;;;2.30;;
20283;SDS011;10301;50.832;4.080;2023-04-25T09:48:28;9.37;;;2.20;;
20283;SDS011;10301;50.832;4.080;2023-04-25T09:51:27;8.10;;;2.33;;
20283;SDS011;10301;50.832;4.080;2023-04-25T09:53:50;8.73;;;1.67;;
20283;SDS011;10301;50.832;4.080;2023-04-25T09:56:16;10.67;;;1.70;;
20283;SDS011;10301;50.832;4.080;2023-04-25T09:58:42;6.70;;;1.97;;
20283;SDS011;10301;50.832;4.080;2023-04-25T10:01:08;7.03;;;1.60;;
20283;SDS011;10301;50.832;4.080;2023-04-25T10:03:38;8.87;;;1.93;;
20283;SDS011;10301;50.832;4.080;2023-04-25T10:06:12;8.00;;;2.00;;
20283;SDS011;10301;50.832;4.080;2023-04-25T10:08:43;13.43;;;2.27;;
20283;SDS011;10301;50.832;4.080;2023-04-25T10:11:09;8.20;;;2.00;;
20283;SDS011;10301;50.832;4.080;2023-04-25T10:13:39;7.05;;;2.00;;
20283;SDS011;10301;50.832;4.080;2023-04-25T10:16:05;7.65;;;2.08;;
20283;SDS011;10301;50.832;4.080;2023-04-25T10:18:31;9.18;;;2.05;;
20283;SDS011;10301;50.832;4.080;2023-04-25T10:20:58;7.38;;;1.80;;
20283;SDS011;10301;50.832;4.080;2023-04-25T10:23:26;5.80;;;1.70;;
20283;SDS011;10301;50.832;4.080;2023-04-25T10:25:52;12.55;;;2.03;;
20283;SDS011;10301;50.832;4.080;2023-04-25T10:28:19;11.03;;;2.70;;
20283;SDS011;10301;50.832;4.080;2023-04-25T10:31:04;7.33;;;1.80;;
20283;SDS011;10301;50.832;4.080;2023-04-25T10:33:36;10.80;;;1.57;;
20283;SDS011;10301;50.832;4.080;2023-04-25T10:36:12;10.90;;;2.07;;
20283;SDS011;10301;50.832;4.080;2023-04-25T10:38:39;6.77;;;1.57;;
20283;SDS011;10301;50.832;4.080;2023-04-25T10:41:05;11.67;;;1.90;;
20283;SDS011;10301;50.832;4.080;2023-04-25T10:43:39;7.47;;;1.73;;
20283;SDS011;10301;50.832;4.080;2023-04-25T10:48:46;6.43;;;1.53;;
20283;SDS011;10301;50.832;4.080;2023-04-25T10:51:17;9.47;;;1.40;;
20283;SDS011;10301;50.832;4.080;2023-04-25T10:54:03;7.87;;;1.60;;
20283;SDS011;10301;50.832;4.080;2023-04-25T10:59:18;5.57;;;1.60;;
20283;SDS011;10301;50.832;4.080;2023-04-25T11:01:52;3.83;;;1.20;;
20283;SDS011;10301;50.832;4.080;2023-04-25T11:04:24;5.17;;;1.50;;
20283;SDS011;10301;50.832;4.080;2023-04-25T11:09:23;8.87;;;1.30;;
20283;SDS011;10301;50.832;4.080;2023-04-25T11:11:56;7.77;;;1.60;;
20283;SDS011;10301;50.832;4.080;2023-04-25T11:14:23;4.30;;;1.10;;
20283;SDS011;10301;50.832;4.080;2023-04-25T11:16:53;6.40;;;1.37;;
20283;SDS011;10301;50.832;4.080;2023-04-25T11:19:21;5.67;;;1.57;;
20283;SDS011;10301;50.832;4.080;2023-04-25T11:21:47;9.30;;;1.53;;
20283;SDS011;10301;50.832;4.080;2023-04-25T11:24:12;5.33;;;1.50;;
20283;SDS011;10301;50.832;4.080;2023-04-25T11:26:38;5.85;;;1.60;;
20283;SDS011;10301;50.832;4.080;2023-04-25T11:29:06;4.10;;;1.23;;
20283;SDS011;10301;50.832;4.080;2023-04-25T11:31:32;6.65;;;1.25;;
20283;SDS011;10301;50.832;4.080;2023-04-25T11:33:57;6.00;;;1.45;;
20283;SDS011;10301;50.832;4.080;2023-04-25T11:36:24;8.37;;;1.57;;
20283;SDS011;10301;50.832;4.080;2023-04-25T11:38:51;6.23;;;1.30;;
20283;SDS011;10301;50.832;4.080;2023-04-25T11:41:21;5.63;;;1.73;;
20283;SDS011;10301;50.832;4.080;2023-04-25T11:43:47;5.53;;;1.10;;
20283;SDS011;10301;50.832;4.080;2023-04-25T11:46:13;7.80;;;1.57;;
20283;SDS011;10301;50.832;4.080;2023-04-25T11:48:40;6.73;;;1.30;;
20283;SDS011;10301;50.832;4.080;2023-04-25T11:51:07;4.63;;;1.07;;
20283;SDS011;10301;50.832;4.080;2023-04-25T11:53:33;4.07;;;1.27;;
20283;SDS011;10301;50.832;4.080;2023-04-25T11:56:00;5.00;;;1.30;;
20283;SDS011;10301;50.832;4.080;2023-04-25T11:58:26;8.05;;;1.30;;
20283;SDS011;10301;50.832;4.080;2023-04-25T12:00:52;6.78;;;1.85;;
20283;SDS011;10301;50.832;4.080;2023-04-25T12:03:18;7.10;;;1.50;;
20283;SDS011;10301;50.832;4.080;2023-04-25T12:05:44;7.22;;;1.60;;
20283;SDS011;10301;50.832;4.080;2023-04-25T12:08:13;8.63;;;1.60;;
20283;SDS011;10301;50.832;4.080;2023-04-25T12:10:41;6.25;;;1.48;;
20283;SDS011;10301;50.832;4.080;2023-04-25T12:13:18;3.53;;;1.13;;
20283;SDS011;10301;50.832;4.080;2023-04-25T12:15:44;5.70;;;1.60;;
20283;SDS011;10301;50.832;4.080;2023-04-25T12:18:10;5.55;;;1.25;;
20283;SDS011;10301;50.832;4.080;2023-04-25T12:20:35;3.78;;;1.10;;
20283;SDS011;10301;50.832;4.080;2023-04-25T12:23:01;3.78;;;1.02;;
20283;SDS011;10301;50.832;4.080;2023-04-25T12:30:59;4.32;;;1.40;;
20283;SDS011;10301;50.832;4.080;2023-04-25T12:33:32;4.43;;;1.70;;
20283;SDS011;10301;50.832;4.080;2023-04-25T12:35:59;7.47;;;1.45;;
20283;SDS011;10301;50.832;4.080;2023-04-25T12:38:29;5.22;;;1.50;;
20283;SDS011;10301;50.832;4.080;2023-04-25T12:40:57;6.10;;;2.20;;
20283;SDS011;10301;50.832;4.080;2023-04-25T12:43:23;7.00;;;1.48;;
20283;SDS011;10301;50.832;4.080;2023-04-25T12:45:49;6.97;;;1.70;;
20283;SDS011;10301;50.832;4.080;2023-04-25T12:48:16;6.57;;;2.10;;
20283;SDS011;10301;50.832;4.080;2023-04-25T12:50:43;5.53;;;1.65;;
20283;SDS011;10301;50.832;4.080;2023-04-25T12:53:09;5.57;;;1.67;;
20283;SDS011;10301;50.832;4.080;2023-04-25T12:55:36;5.70;;;1.85;;
20283;SDS011;10301;50.832;4.080;2023-04-25T12:58:02;9.10;;;2.10;;
20283;SDS011;10301;50.832;4.080;2023-04-25T13:00:28;7.25;;;1.90;;
20283;SDS011;10301;50.832;4.080;2023-04-25T13:02:54;6.10;;;1.77;;
20283;SDS011;10301;50.832;4.080;2023-04-25T13:05:21;7.30;;;1.90;;
20283;SDS011;10301;50.832;4.080;2023-04-25T13:07:46;5.68;;;1.35;;
20283;SDS011;10301;50.832;4.080;2023-04-25T13:10:12;5.70;;;1.75;;
20283;SDS011;10301;50.832;4.080;2023-04-25T13:12:38;6.22;;;1.40;;
20283;SDS011;10301;50.832;4.080;2023-04-25T13:15:04;6.10;;;1.80;;
20283;SDS011;10301;50.832;4.080;2023-04-25T13:17:30;7.35;;;2.13;;
20283;SDS011;10301;50.832;4.080;2023-04-25T13:19:55;5.03;;;1.40;;
20283;SDS011;10301;50.832;4.080;2023-04-25T13:22:21;7.70;;;1.80;;
20283;SDS011;10301;50.832;4.080;2023-04-25T13:24:47;9.57;;;1.83;;
20283;SDS011;10301;50.832;4.080;2023-04-25T13:27:13;8.93;;;2.13;;
20283;SDS011;10301;50.832;4.080;2023-04-25T13:29:39;5.85;;;1.50;;
20283;SDS011;10301;50.832;4.080;2023-04-25T13:32:05;5.65;;;1.70;;
20283;SDS011;10301;50.832;4.080;2023-04-25T13:34:31;6.82;;;1.77;;
20283;SDS011;10301;50.832;4.080;2023-04-25T13:36:57;7.10;;;1.98;;
20283;SDS011;10301;50.832;4.080;2023-04-25T13:39:23;4.95;;;1.58;;
20283;SDS011;10301;50.832;4.080;2023-04-25T13:41:49;5.65;;;1.65;;
20283;SDS011;10301;50.832;4.080;2023-04-25T13:44:15;8.25;;;1.85;;
20283;SDS011;10301;50.832;4.080;2023-04-25T13:46:41;7.88;;;2.00;;
20283;SDS011;10301;50.832;4.080;2023-04-25T13:49:06;6.10;;;1.80;;
20283;SDS011;10301;50.832;4.080;2023-04-25T13:51:32;7.00;;;2.17;;
20283;SDS011;10301;50.832;4.080;2023-04-25T13:53:58;11.90;;;2.08;;
20283;SDS011;10301;50.832;4.080;2023-04-25T13:56:23;6.50;;;1.70;;
20283;SDS011;10301;50.832;4.080;2023-04-25T13:58:50;7.18;;;1.73;;
20283;SDS011;10301;50.832;4.080;2023-04-25T14:01:16;6.05;;;1.50;;
20283;SDS011;10301;50.832;4.080;2023-04-25T14:03:42;5.60;;;1.40;;
20283;SDS011;10301;50.832;4.080;2023-04-25T14:06:09;7.80;;;1.52;;
20283;SDS011;10301;50.832;4.080;2023-04-25T14:08:36;6.18;;;1.70;;
20283;SDS011;10301;50.832;4.080;2023-04-25T14:11:02;9.35;;;1.67;;
20283;SDS011;10301;50.832;4.080;2023-04-25T14:13:28;5.95;;;1.65;;
20283;SDS011;10301;50.832;4.080;2023-04-25T14:15:54;9.00;;;1.60;;
20283;SDS011;10301;50.832;4.080;2023-04-25T14:18:20;5.45;;;1.50;;
20283;SDS011;10301;50.832;4.080;2023-04-25T14:20:45;5.60;;;1.52;;
20283;SDS011;10301;50.832;4.080;2023-04-25T14:23:11;8.07;;;1.45;;
20283;SDS011;10301;50.832;4.080;2023-04-25T14:25:37;6.28;;;1.33;;
20283;SDS011;10301;50.832;4.080;2023-04-25T14:28:03;5.10;;;1.33;;
20283;SDS011;10301;50.832;4.080;2023-04-25T14:30:29;6.38;;;1.70;;
20283;SDS011;10301;50.832;4.080;2023-04-25T14:32:54;6.95;;;1.80;;
20283;SDS011;10301;50.832;4.080;2023-04-25T14:35:20;6.93;;;1.70;;
20283;SDS011;10301;50.832;4.080;2023-04-25T14:37:46;7.85;;;2.05;;
20283;SDS011;10301;50.832;4.080;2023-04-25T14:40:12;4.85;;;1.85;;
20283;SDS011;10301;50.832;4.080;2023-04-25T14:42:40;9.07;;;1.92;;
20283;SDS011;10301;50.832;4.080;2023-04-25T14:45:06;6.10;;;1.70;;
20283;SDS011;10301;50.832;4.080;2023-04-25T14:47:33;10.10;;;1.90;;
20283;SDS011;10301;50.832;4.080;2023-04-25T14:49:59;6.93;;;1.80;;
20283;SDS011;10301;50.832;4.080;2023-04-25T14:52:26;5.35;;;1.65;;
20283;SDS011;10301;50.832;4.080;2023-04-25T14:54:52;5.15;;;1.90;;